Time;durP1;ratioP1;P1;durP2;ratioP2;P2;SDS_P1;SDS_P2;PMS_P1;PMS_P2;Temp;Humidity;BMP_temperature;BMP_pressure;BME280_temperature;BME280_humidity;BME280_pressure;Samples;Min_cycle;Max_cycle;Signal;HPM_P1;HPM_P2
2023/07/23 00:01:44;;;;;;;;;;;;;;;24.87;100.00;99502.81;5049321;28;19921;-74
2023/07/23 00:04:10;;;;;;;;;;;;;;;24.82;100.00;99500.00;5052419;28;19929;-75
2023/07/23 00:06:38;;;;;;;;;;;;;;;24.82;100.00;99500.00;5048536;28;20016;-75
2023/07/23 00:09:04;;;;;;;;;;;;;;;24.82;100.00;99500.00;5047003;28;20055;-74
2023/07/23 00:11:29;;;;;;;;;;;;;;;24.78;100.00;99509.66;5051165;28;19967;-73
2023/07/23 00:13:55;;;;;;;;;;;;;;;24.76;100.00;99511.75;5047793;28;19921;-75
2023/07/23 00:16:21;;;;;;;;;;;;;;;24.74;100.00;99508.47;5050283;28;20316;-74
2023/07/23 00:18:47;;;;;;;;;;;;;;;24.77;100.00;99516.09;5052017;28;19935;-73
2023/07/23 00:21:12;;;;;;;;;;;;;;;24.77;100.00;99513.41;5052530;28;19924;-73
2023/07/23 00:23:37;;;;;;;;;;;;;;;24.70;100.00;99507.28;5043388;28;19929;-74
2023/07/23 00:26:03;;;;;;;;;;;;;;;24.71;100.00;99506.25;5051193;28;19917;-76
2023/07/23 00:28:28;;;;;;;;;;;;;;;24.69;100.00;99496.72;5029592;28;20458;-75
2023/07/23 00:30:54;;;;;;;;;;;;;;;24.71;100.00;99503.53;5048665;28;19928;-75
2023/07/23 00:33:23;;;;;;;;;;;;;;;24.62;100.00;99504.97;5049347;28;19917;-77
2023/07/23 00:35:49;;;;;;;;;;;;;;;24.42;100.00;99497.22;5049189;28;20401;-75
2023/07/23 00:38:14;;;;;;;;;;;;;;;24.41;100.00;99508.22;5050648;28;19974;-75
2023/07/23 00:40:40;;;;;;;;;;;;;;;24.39;100.00;99505.75;5048115;28;19952;-74
2023/07/23 00:43:06;;;;;;;;;;;;;;;24.36;100.00;99510.81;5050597;28;19921;-74
2023/07/23 00:45:32;;;;;;;;;;;;;;;24.32;100.00;99509.63;5049711;28;19990;-75
2023/07/23 00:47:58;;;;;;;;;;;;;;;24.32;100.00;99505.06;5045498;28;19984;-76
2023/07/23 00:50:25;;;;;;;;;;;;;;;24.12;100.00;99509.91;5048261;28;19963;-75
2023/07/23 00:52:50;;;;;;;;;;;;;;;24.02;100.00;99513.19;5047948;28;19927;-75
2023/07/23 00:55:16;;;;;;;7.25;5.78;;;;;;;23.83;100.00;99516.16;5042983;28;19921;-75
2023/07/23 00:57:43;;;;;;;6.95;5.47;;;;;;;23.80;100.00;99509.34;5047142;28;20037;-74
2023/07/23 01:00:10;;;;;;;6.22;5.30;;;;;;;23.58;100.00;99510.91;5046766;28;20033;-75
2023/07/23 01:02:36;;;;;;;8.27;5.83;;;;;;;23.34;100.00;99501.03;5045709;28;20563;-75
2023/07/23 01:05:03;;;;;;;6.10;5.57;;;;;;;23.24;100.00;99502.41;5049345;28;20230;-75
2023/07/23 01:07:29;;;;;;;;;;;;;;;23.22;100.00;99504.50;5031017;28;20070;-75
2023/07/23 01:09:55;;;;;;;;;;;;;;;23.24;100.00;99507.81;5047723;28;19963;-75
2023/07/23 01:12:21;;;;;;;;;;;;;;;23.14;100.00;99502.13;5045285;28;19971;-75
2023/07/23 01:14:46;;;;;;;;;;;;;;;23.07;100.00;99504.06;5048162;28;19916;-76
2023/07/23 01:17:14;;;;;;;7.80;5.70;;;;;;;23.01;100.00;99496.06;5028999;28;19924;-75
2023/07/23 01:19:40;;;;;;;6.13;5.53;;;;;;;23.05;100.00;99494.56;5047590;28;20105;-74
2023/07/23 01:22:06;;;;;;;;;;;;;;;23.12;100.00;99503.38;5048393;28;20043;-75
2023/07/23 01:24:34;;;;;;;;;;;;;;;23.16;100.00;99499.19;5045882;28;19927;-74
2023/07/23 01:26:59;;;;;;;;;;;;;;;23.25;100.00;99509.44;5044161;28;19924;-75
2023/07/23 01:29:25;;;;;;;;;;;;;;;23.28;100.00;99508.97;5050733;28;19917;-75
2023/07/23 01:31:50;;;;;;;;;;;;;;;23.42;100.00;99514.22;5049490;28;19974;-75
2023/07/23 01:34:16;;;;;;;;;;;;;;;23.47;100.00;99506.28;5047508;28;19917;-75
2023/07/23 01:36:42;;;;;;;;;;;;;;;23.53;100.00;99505.38;5049103;28;19921;-75
2023/07/23 01:39:07;;;;;;;;;;;;;;;23.55;100.00;99503.31;5051913;28;19916;-75
2023/07/23 01:41:33;;;;;;;;;;;;;;;23.57;100.00;99503.88;5052558;28;19917;-76
2023/07/23 01:43:59;;;;;;;;;;;;;;;23.64;100.00;99512.69;5056489;28;19917;-75
2023/07/23 01:46:24;;;;;;;;;;;;;;;23.70;100.00;99511.78;5051889;28;19917;-75
2023/07/23 01:48:50;;;;;;;;;;;;;;;23.77;100.00;99507.13;5049762;28;20350;-75
2023/07/23 01:51:15;;;;;;;;;;;;;;;23.82;100.00;99509.97;5057223;28;19982;-75
2023/07/23 01:53:41;;;;;;;;;;;;;;;23.84;100.00;99510.56;5049081;28;19920;-75
2023/07/23 01:56:06;;;;;;;;;;;;;;;23.90;100.00;99509.63;5051457;28;19940;-75
2023/07/23 01:58:32;;;;;;;;;;;;;;;23.71;100.00;99512.59;5053300;28;19931;-75
2023/07/23 02:00:59;;;;;;;;;;;;;;;23.58;100.00;99513.59;5052821;28;19917;-75
2023/07/23 02:03:24;;;;;;;;;;;;;;;23.61;100.00;99515.88;5036750;28;19923;-75
2023/07/23 02:05:58;;;;;;;;;;;;;;;23.64;100.00;99510.00;5049466;28;19917;-75
2023/07/23 02:08:24;;;;;;;;;;;;;;;23.65;100.00;99498.19;5037481;28;20404;-75
2023/07/23 02:10:49;;;;;;;;;;;;;;;23.60;100.00;99500.75;5051999;28;19924;-75
2023/07/23 02:13:15;;;;;;;;;;;;;;;23.56;100.00;99494.19;5031579;28;19923;-74
2023/07/23 02:15:40;;;;;;;;;;;;;;;23.52;100.00;99498.34;5051807;28;20174;-74
2023/07/23 02:18:05;;;;;;;;;;;;;;;23.53;100.00;99505.38;5032847;28;19924;-75
2023/07/23 02:20:31;;;;;;;;;;;;;;;23.55;100.00;99508.69;5048963;28;19921;-74
2023/07/23 02:22:56;;;;;;;;;;;;;;;23.53;100.00;99505.38;5049810;28;19971;-73
2023/07/23 02:25:22;;;;;;;;;;;;;;;23.51;100.00;99512.88;5026778;28;19917;-74
2023/07/23 02:27:47;;;;;;;;;;;;;;;23.50;100.00;99511.25;5049192;28;19917;-74
2023/07/23 02:30:13;;;;;;;;;;;;;;;23.52;100.00;99509.13;5036723;28;19917;-74
2023/07/23 02:32:38;;;;;;;;;;;;;;;23.56;100.00;99515.72;5032909;28;19971;-75
2023/07/23 02:35:04;;;;;;;;;;;;;;;23.57;100.00;99517.34;5034715;28;19923;-75
2023/07/23 02:37:29;;;;;;;;;;;;;;;23.56;100.00;99523.81;5035908;28;20012;-75
2023/07/23 02:39:55;;;;;;;;;;;;;;;23.57;100.00;99522.72;5032075;28;19917;-75
2023/07/23 02:42:20;;;;;;;;;;;;;;;23.58;100.00;99524.38;5033539;28;19924;-75
2023/07/23 02:44:45;;;;;;;;;;;;;;;23.57;100.00;99528.13;5032948;28;19924;-74
2023/07/23 02:47:11;;;;;;;;;;;;;;;23.59;100.00;99532.25;5032082;28;19964;-75
2023/07/23 02:49:37;;;;;;;;;;;;;;;23.64;100.00;99536.94;5033068;28;19921;-74
2023/07/23 02:52:04;;;;;;;;;;;;;;;23.63;100.00;99535.28;5047997;28;19939;-75
2023/07/23 02:54:30;;;;;;;;;;;;;;;23.62;100.00;99533.66;5026203;28;20419;-75
2023/07/23 02:56:56;;;;;;;;;;;;;;;23.63;100.00;99535.28;5030652;28;19916;-75
2023/07/23 02:59:21;;;;;;;;;;;;;;;23.63;100.00;99536.13;5044880;28;19921;-76
2023/07/23 03:01:46;;;;;;;;;;;;;;;23.64;100.00;99545.03;5044780;28;19923;-74
2023/07/23 03:04:13;;;;;;;;;;;;;;;23.66;100.00;99548.31;5028636;28;20003;-75
2023/07/23 03:06:41;;;;;;;;;;;;;;;23.66;100.00;99549.16;5027817;28;20334;-75
2023/07/23 03:09:07;;;;;;;;;;;;;;;23.70;100.00;99549.50;5046048;28;19959;-75
2023/07/23 03:11:33;;;;;;;;;;;;;;;23.67;100.00;99555.34;5045328;28;19944;-74
2023/07/23 03:13:58;;;;;;;;;;;;;;;23.66;100.00;99565.31;5043541;28;19917;-75
2023/07/23 03:16:24;;;;;;;;;;;;;;;23.64;100.00;99562.00;5029806;28;19917;-75
2023/07/23 03:18:49;;;;;;;;;;;;;;;23.64;100.00;99562.00;5029828;28;19925;-75
2023/07/23 03:21:15;;;;;;;;;;;;;;;23.61;100.00;99567.03;5028244;28;19917;-75
2023/07/23 03:23:43;;;;;;;;;;;;;;;23.56;100.00;99564.22;5025501;28;19917;-74
2023/07/23 03:26:08;;;;;;;;;;;;;;;23.55;100.00;99567.94;5031018;28;20042;-74
2023/07/23 03:28:34;;;;;;;;;;;;;;;23.52;100.00;99563.81;5029603;28;19920;-74
2023/07/23 03:30:59;;;;;;;;;;;;;;;23.43;100.00;99572.41;5031659;28;19974;-75
2023/07/23 03:33:26;;;;;;;;;;;;;;;23.32;100.00;99573.16;5029789;28;20064;-76
2023/07/23 03:35:52;;;;;;;;;;;;;;;23.20;100.00;99571.22;5029266;28;20292;-73
2023/07/23 03:38:17;;;;;;;;;;;;;;;23.12;100.00;99571.50;5032458;28;19917;-75
2023/07/23 03:40:43;;;;;;;;;;;;;;;23.06;100.00;99569.72;5027331;28;19931;-74
2023/07/23 03:43:08;;;;;;;;;;;;;;;22.97;100.00;99579.13;5030072;28;20071;-74
2023/07/23 03:45:34;;;;;;;6.65;5.88;;;;;;;22.90;100.00;99567.59;5032178;28;19921;-74
2023/07/23 03:47:59;;;;;;;8.48;5.13;;;;;;;22.88;100.00;99572.38;5031549;28;20091;-75
2023/07/23 03:50:25;;;;;;;11.38;5.63;;;;;;;22.88;100.00;99577.75;5031760;28;20079;-74
2023/07/23 03:52:50;;;;;;;6.43;5.70;;;;;;;22.81;100.00;99571.59;5030257;28;20113;-75
2023/07/23 03:55:16;;;;;;;8.30;6.47;;;;;;;22.83;100.00;99566.84;5028055;28;20053;-75
2023/07/23 03:57:42;;;;;;;8.05;6.15;;;;;;;22.83;100.00;99569.53;5032149;28;20041;-73
2023/07/23 04:00:09;;;;;;;8.25;5.90;;;;;;;22.77;100.00;99573.09;5032220;28;20053;-73
2023/07/23 04:02:37;;;;;;;7.07;5.87;;;;;;;22.61;100.00;99581.69;5030071;28;20036;-74
2023/07/23 04:05:03;;;;;;;9.35;6.30;;;;;;;22.64;100.00;99581.25;5030846;28;20780;-73
2023/07/23 04:07:29;;;;;;;9.43;6.43;;;;;;;22.67;100.00;99580.81;5032135;28;20029;-73
2023/07/23 04:09:54;;;;;;;7.47;6.28;;;;;;;22.70;100.00;99580.38;5026554;28;20044;-73
2023/07/23 04:12:22;;;;;;;7.05;6.03;;;;;;;22.73;100.00;99577.28;5036366;28;20116;-74
2023/07/23 04:14:51;;;;;;;9.07;6.10;;;;;;;22.79;100.00;99582.63;5048435;28;20032;-74
2023/07/23 04:17:17;;;;;;;8.70;5.97;;;;;;;22.75;100.00;99588.63;5049113;28;20025;-73
2023/07/23 04:19:42;;;;;;;7.93;7.07;;;;;;;22.60;100.00;99586.25;5031001;28;20108;-73
2023/07/23 04:22:08;;;;;;;9.50;6.68;;;;;;;22.32;100.00;99589.38;5050388;28;20134;-75
2023/07/23 04:24:34;;;;;;;8.40;6.20;;;;;;;22.48;100.00;99585.31;5044369;28;20041;-73
2023/07/23 04:26:59;;;;;;;7.90;6.15;;;;;;;22.39;100.00;99592.81;5049124;28;20021;-74
2023/07/23 04:29:25;;;;;;;11.52;6.38;;;;;;;22.35;100.00;99586.25;5033790;28;20029;-74
2023/07/23 04:31:50;;;;;;;7.47;6.03;;;;;;;22.40;100.00;99597.16;5050154;28;20370;-75
2023/07/23 04:34:16;;;;;;;6.93;5.93;;;;;;;22.43;100.00;99591.34;5048488;28;20457;-74
2023/07/23 04:36:41;;;;;;;7.70;6.10;;;;;;;22.46;100.00;99592.78;5048753;28;20033;-75
2023/07/23 04:39:09;;;;;;;6.80;6.13;;;;;;;22.49;100.00;99595.03;5048747;28;20588;-74
2023/07/23 04:41:35;;;;;;;7.55;6.43;;;;;;;22.50;100.00;99601.25;5028620;28;20035;-74
2023/07/23 04:44:01;;;;;;;9.43;6.38;;;;;;;22.51;100.00;99598.31;5049939;28;20416;-75
2023/07/23 04:46:27;;;;;;;10.63;6.55;;;;;;;22.60;100.00;99601.56;5047954;28;20025;-75
2023/07/23 04:48:52;;;;;;;7.00;5.72;;;;;;;22.67;100.00;99605.88;5044877;28;20025;-75
2023/07/23 04:51:18;;;;;;;7.20;5.88;;;;;;;22.75;100.00;99604.78;5040571;28;20530;-74
2023/07/23 04:53:44;;;;;;;10.48;6.20;;;;;;;22.77;100.00;99610.75;5041198;28;20032;-74
2023/07/23 04:56:09;;;;;;;8.43;6.63;;;;;;;22.71;100.00;99603.53;5042863;28;20120;-75
2023/07/23 04:58:35;;;;;;;7.63;6.07;;;;;;;22.53;100.00;99604.31;5043934;28;20032;-80
2023/07/23 05:01:09;;;;;;;11.00;6.63;;;;;;;22.15;100.00;99615.09;5027656;28;20029;-76
2023/07/23 05:03:36;;;;;;;12.52;6.10;;;;;;;22.22;100.00;99609.69;5022183;28;20042;-76
2023/07/23 05:06:02;;;;;;;;;;;;;;;22.29;100.00;99611.31;5049658;28;20465;-74
2023/07/23 05:08:28;;;;;;;;;;;;;;;22.36;100.00;99614.78;5044907;28;19924;-74
2023/07/23 05:10:57;;;;;;;;;;;;;;;22.39;100.00;99608.94;5049802;28;19917;-75
2023/07/23 05:13:23;;;;;;;;;;;;;;;22.37;100.00;99600.28;5037325;28;19917;-76
2023/07/23 05:15:48;;;;;;;;;;;;;;;22.34;100.00;99619.53;5048314;28;20387;-75
2023/07/23 05:18:13;;;;;;;;;;;;;;;22.36;100.00;99616.63;5040913;28;19944;-75
2023/07/23 05:20:39;;;;;;;;;;;;;;;22.39;100.00;99611.63;5042116;28;19924;-75
2023/07/23 05:23:04;;;;;;;;;;;;;;;22.45;100.00;99608.06;5050680;28;19998;-75
2023/07/23 05:25:30;;;;;;;;;;;;;;;22.54;100.00;99608.66;5040915;28;20340;-75
2023/07/23 05:27:56;;;;;;;;;;;;;;;22.56;100.00;99600.38;5046242;28;19920;-76
2023/07/23 05:30:21;;;;;;;;;;;;;;;22.58;100.00;99609.03;5048720;28;19939;-75
2023/07/23 05:32:47;;;;;;;;;;;;;;;22.70;100.00;99618.03;5051163;28;19924;-77
2023/07/23 05:35:13;;;;;;;;;;;;;;;22.74;100.00;99614.72;5046885;28;19963;-76
2023/07/23 05:37:38;;;;;;;;;;;;;;;22.77;100.00;99624.22;5049793;28;20377;-76
2023/07/23 05:40:04;;;;;;;;;;;;;;;22.80;100.00;99623.75;5042754;28;19917;-77
2023/07/23 05:42:29;;;;;;;;;;;;;;;22.88;100.00;99620.81;5045206;28;19979;-77
2023/07/23 05:44:54;;;;;;;;;;;;;;;22.96;100.00;99634.00;5050617;28;19924;-76
2023/07/23 05:47:20;;;;;;;;;;;;;;;23.04;100.00;99633.69;5045054;28;19921;-76
2023/07/23 05:49:46;;;;;;;8.82;7.40;;;;;;;23.06;100.00;99644.25;5049257;28;19916;-76
2023/07/23 05:52:11;;;;;;;10.07;7.70;;;;;;;23.02;100.00;99649.25;5047293;28;20040;-74
2023/07/23 05:54:37;;;;;;;8.50;6.35;;;;;;;23.05;100.00;99643.41;5045680;28;20041;-76
2023/07/23 05:57:03;;;;;;;7.35;6.45;;;;;;;23.06;100.00;99641.56;5028347;28;20041;-76
2023/07/23 05:59:29;;;;;;;8.73;7.32;;;;;;;23.11;100.00;99642.53;5044428;28;20055;-76
2023/07/23 06:01:54;;;;;;;8.07;6.67;;;;;;;23.08;100.00;99643.00;5046202;28;20027;-77
2023/07/23 06:04:20;;;;;;;8.60;7.10;;;;;;;23.14;100.00;99636.72;5049447;28;19917;-77
2023/07/23 06:06:46;;;;;;;10.85;8.20;;;;;;;23.19;100.00;99639.56;5048744;28;19923;-77
2023/07/23 06:09:12;;;;;;;11.02;8.27;;;;;;;23.20;100.00;99646.59;5046006;28;20857;-77
2023/07/23 06:11:37;;;;;;;11.02;7.07;;;;;;;23.27;100.00;99647.34;5047053;28;19921;-77
2023/07/23 06:14:03;;;;;;;9.00;7.90;;;;;;;23.31;100.00;99663.06;5055118;22;20113;-86
2023/07/23 06:16:31;;;;;;;12.00;8.10;;;;;;;23.28;100.00;99654.38;5008364;28;20533;-88
2023/07/23 06:18:57;;;;;;;;;;;;;;;23.15;100.00;99653.69;5009843;28;20069;-87
2023/07/23 06:21:22;;;;;;;;;;;;;;;23.09;100.00;99654.59;5008388;28;19918;-88
2023/07/23 06:23:48;;;;;;;;;;;;;;;23.19;100.00;99655.72;5010387;28;19921;-87
2023/07/23 06:26:13;;;;;;;;;;;;;;;23.16;100.00;99656.16;5012578;28;19917;-87
2023/07/23 06:28:38;;;;;;;;;;;;;;;23.23;100.00;99656.09;5013670;28;19979;-86
2023/07/23 06:31:04;;;;;;;;;;;;;;;23.20;100.00;99660.06;5013729;28;19956;-87
2023/07/23 06:33:29;;;;;;;;;;;;;;;23.22;100.00;99649.88;4996337;28;20779;-88
2023/07/23 06:35:54;;;;;;;;;;;;;;;23.24;100.00;99663.13;4994535;28;19917;-88
2023/07/23 06:38:20;;;;;;;;;;;;;;;23.30;100.00;99656.03;4991024;28;19917;-88
2023/07/23 06:40:48;;;;;;;;;;;;;;;23.38;100.00;99664.66;5016428;28;19944;-87
2023/07/23 06:43:14;;;;;;;;;;;;;;;23.36;100.00;99657.81;5007197;28;19928;-87
2023/07/23 06:45:39;;;;;;;;;;;;;;;23.40;100.00;99664.41;5013020;28;19925;-89
2023/07/23 06:48:05;;;;;;;;;;;;;;;23.48;100.00;99656.06;5007599;28;19918;-88
2023/07/23 06:50:31;;;;;;;;;;;;;;;23.62;100.00;99665.66;5011796;28;20010;-86
2023/07/23 06:52:57;;;;;;;17.65;10.35;;;;;;;23.73;100.00;99667.59;5010295;28;20012;-84
2023/07/23 06:55:23;;;;;;;13.18;10.85;;;;;;;23.82;100.00;99671.63;5002268;28;20114;-80
2023/07/23 06:57:48;;;;;;;16.40;10.70;;;;;;;23.80;100.00;99668.34;5009284;28;20038;-83
2023/07/23 07:00:14;;;;;;;15.30;11.60;;;;;;;23.88;100.00;99664.50;5008231;28;20064;-82
2023/07/23 07:02:40;;;;;;;;;;;;;;;23.88;100.00;99670.72;5007262;28;20030;-82
2023/07/23 07:05:05;;;;;;;;;;;;;;;23.98;100.00;99660.22;5006714;28;19921;-82
2023/07/23 07:07:30;;;;;;;;;;;;;;;24.08;100.00;99663.22;5011860;28;19913;-79
2023/07/23 07:09:56;;;;;;;;;;;;;;;24.20;100.00;99662.47;5005489;28;20385;-79
2023/07/23 07:12:21;;;;;;;;;;;;;;;24.29;100.00;99661.94;5004666;28;19921;-82
2023/07/23 07:14:46;;;;;;;;;;;;;;;24.40;100.00;99665.72;5008079;28;19970;-82
2023/07/23 07:17:12;;;;;;;;;;;;;;;24.47;100.00;99663.75;5008993;28;20317;-81
2023/07/23 07:19:37;;;;;;;;;;;;;;;24.41;100.00;99661.97;5007875;28;19918;-81
2023/07/23 07:22:04;;;;;;;;;;;;;;;24.42;100.00;99666.31;5011358;28;19920;-82
2023/07/23 07:24:29;;;;;;;;;;;;;;;24.44;100.00;99656.13;5007609;28;20284;-82
2023/07/23 07:26:54;;;;;;;;;;;;;;;24.42;100.00;99666.31;5011233;28;19913;-84
2023/07/23 07:29:20;;;;;;;;;;;;;;;24.47;100.00;99661.03;5008139;28;20228;-83
2023/07/23 07:31:47;;;;;;;;;;;;;;;24.47;100.00;99664.56;5009459;28;20238;-82
2023/07/23 07:34:13;;;;;;;;;;;;;;;24.60;100.00;99663.56;5008561;28;19924;-80
2023/07/23 07:36:39;;;;;;;;;;;;;;;24.74;100.00;99674.97;5006608;28;19925;-79
2023/07/23 07:39:04;;;;;;;;;;;;;;;24.81;100.00;99665.69;5002365;28;19917;-79
2023/07/23 07:41:30;;;;;;;;;;;;;;;24.93;100.00;99663.03;5008256;28;20449;-81
2023/07/23 07:43:55;;;;;;;12.20;8.30;;;;;;;25.04;100.00;99664.09;5010863;28;19917;-81
2023/07/23 07:46:21;;;;;;;10.77;8.35;;;;;;;24.88;100.00;99666.44;5007382;28;20033;-82
2023/07/23 07:48:47;;;;;;;10.23;7.30;;;;;;;24.75;100.00;99666.63;5010266;28;20039;-80
2023/07/23 07:51:13;;;;;;;13.10;7.75;;;;;;;24.84;100.00;99661.72;5005641;28;20551;-80
2023/07/23 07:53:38;;;;;;;13.25;7.80;;;;;;;24.94;100.00;99663.88;5009210;28;20029;-79
2023/07/23 07:56:05;;;;;;;12.65;7.13;;;;;;;25.01;100.00;99667.28;5007872;28;20030;-80
2023/07/23 07:58:31;;;;;;;9.50;6.70;;;;;;;25.08;100.00;99659.91;5007888;28;20056;-79
2023/07/23 08:00:58;;;;;;;12.25;6.88;;;;;;;25.21;100.00;99673.97;5010105;28;19917;-78
2023/07/23 08:03:25;;;;;;;;;;;;;;;25.23;100.00;99662.94;5007365;28;19928;-78
2023/07/23 08:05:51;;;;;;;9.88;6.95;;;;;;;25.18;100.00;99666.34;5007341;28;19967;-79
2023/07/23 08:08:21;;;;;;;11.23;6.93;;;;;;;25.24;100.00;99661.88;5011204;28;20037;-81
2023/07/23 08:10:48;;;;;;;11.45;6.22;;;;;;;25.37;100.00;99666.22;5005994;28;20030;-81
2023/07/23 08:13:15;;;;;;;6.90;6.20;;;;;;;25.44;100.00;99659.66;5008946;28;20470;-81
2023/07/23 08:15:40;;;;;;;10.27;6.90;;;;;;;25.51;100.00;99660.31;5005832;28;20052;-82
2023/07/23 08:18:06;;;;;;;11.88;6.40;;;;;;;25.58;100.00;99661.06;5008399;28;20120;-80
2023/07/23 08:20:34;;;;;;;10.00;7.10;;;;;;;25.69;100.00;99662.09;5007267;28;20030;-79
2023/07/23 08:23:00;;;;;;;;;;;;;;;25.74;100.00;99661.41;5011111;28;20007;-81
2023/07/23 08:25:26;;;;;;;;;;;;;;;25.78;100.00;99657.16;5005879;28;19996;-79
2023/07/23 08:27:58;;;;;;;;;;;;;;;25.88;100.00;99660.06;5009595;28;20024;-81
2023/07/23 08:30:24;;;;;;;;;;;;;;;25.89;100.00;99656.28;5007834;28;20340;-80
2023/07/23 08:32:50;;;;;;;;;;;;;;;26.00;100.00;99658.13;5008145;28;19921;-81
2023/07/23 08:35:16;;;;;;;;;;;;;;;26.13;100.00;99655.16;5004961;28;20364;-83
2023/07/23 08:37:41;;;;;;;;;;;;;;;26.21;100.00;99652.06;5011027;28;19922;-83
2023/07/23 08:40:07;;;;;;;;;;;;;;;26.29;100.00;99646.28;5007197;28;20389;-83
2023/07/23 08:42:51;;;;;;;;;;;;;;;26.38;100.00;99650.25;5008805;28;19943;-83
2023/07/23 08:45:16;;;;;;;;;;;;;;;26.44;100.00;99657.41;5003886;28;20009;-82
2023/07/23 08:47:45;;;;;;;;;;;;;;;26.51;100.00;99653.72;5009771;28;19918;-78
2023/07/23 08:50:12;;;;;;;;;;;;;;;26.47;100.00;99642.56;5006830;28;20751;-79
2023/07/23 08:52:39;;;;;;;;;;;;;;;26.46;100.00;99646.31;5007851;28;19925;-80
2023/07/23 08:55:05;;;;;;;;;;;;;;;26.55;100.00;99652.16;5010437;28;19917;-81
2023/07/23 08:57:32;;;;;;;;;;;;;;;26.61;100.00;99654.72;5005596;28;19926;-83
2023/07/23 08:59:58;;;;;;;;;;;;;;;26.61;100.00;99651.19;5008940;28;19921;-81
2023/07/23 09:02:24;;;;;;;;;;;;;;;26.63;100.00;99657.16;4988917;28;20039;-82
2023/07/23 09:04:51;;;;;;;;;;;;;;;26.63;100.00;99649.03;5008384;28;20020;-80
2023/07/23 09:07:17;;;;;;;;;;;;;;;26.70;100.00;99652.41;5002383;28;19975;-81
2023/07/23 09:09:42;;;;;;;;;;;;;;;26.76;100.00;99656.84;5007085;28;20344;-78
2023/07/23 09:12:08;;;;;;;;;;;;;;;26.76;100.00;99657.66;5004643;28;19976;-77
2023/07/23 09:14:40;;;;;;;;;;;;;;;26.74;100.00;99659.00;5007411;28;20017;-79
2023/07/23 09:17:14;;;;;;;;;;;;;;;26.78;100.00;99662.84;5004147;28;19932;-79
2023/07/23 09:19:40;;;;;;;;;;;;;;;26.87;100.00;99664.06;5007669;28;19930;-81
2023/07/23 09:22:05;;;;;;;;;;;;;;;26.96;100.00;99657.22;5009007;28;19928;-81
2023/07/23 09:24:33;;;;;;;;;;;;;;;26.99;100.00;99656.72;5008144;28;19989;-83
2023/07/23 09:26:59;;;;;;;;;;;;;;;27.07;100.00;99659.00;5004216;28;20680;-82
2023/07/23 09:29:33;;;;;;;;;;;;;;;27.18;100.00;99654.56;5010277;28;19922;-82
2023/07/23 09:31:58;;;;;;;;;;;;;;;27.29;100.00;99665.31;5006303;28;19957;-81
2023/07/23 09:34:24;;;;;;;;;;;;;;;27.34;100.00;99652.88;5008368;28;20374;-81
2023/07/23 09:36:53;;;;;;;;;;;;;;;27.34;100.00;99655.59;5007007;28;20385;-81
2023/07/23 09:39:19;;;;;;;;;;;;;;;27.39;100.00;99653.00;5005521;28;20382;-80
2023/07/23 09:41:45;;;;;;;;;;;;;;;27.45;100.00;99668.25;5009905;28;20289;-82
2023/07/23 09:44:11;;;;;;;;;;;;;;;27.52;100.00;99655.34;4988095;28;19921;-82
2023/07/23 09:46:38;;;;;;;;;;;;;;;27.58;100.00;99654.34;5008608;28;20444;-81
2023/07/23 09:49:03;;;;;;;;;;;;;;;27.63;100.00;99657.13;5010119;28;19988;-82
2023/07/23 09:51:31;;;;;;;;;;;;;;;27.68;100.00;99662.63;5008390;28;19971;-81
2023/07/23 09:53:59;;;;;;;;;;;;;;;27.67;100.00;99658.28;5007746;28;19922;-80
2023/07/23 09:56:25;;;;;;;;;;;;;;;27.65;100.00;99652.28;5006541;28;19926;-82
2023/07/23 09:58:51;;;;;;;;;;;;;;;27.71;100.00;99656.69;5011412;28;19944;-80
2023/07/23 10:01:17;;;;;;;;;;;;;;;27.74;100.00;99648.06;5005713;28;19968;-81
2023/07/23 10:03:47;;;;;;;;;;;;;;;27.79;100.00;99645.41;5010787;28;19960;-80
2023/07/23 10:06:13;;;;;;;;;;;;;;;27.79;100.00;99650.00;5008786;28;20008;-81
2023/07/23 10:08:40;;;;;;;;;;;;;;;27.83;100.00;99649.25;5011830;28;19975;-81
2023/07/23 10:11:05;;;;;;;;;;;;;;;27.88;100.00;99641.16;5013330;28;19925;-81
2023/07/23 10:13:30;;;;;;;;;;;;;;;27.97;100.00;99636.94;5010689;28;19927;-81
2023/07/23 10:15:56;;;;;;;;;;;;;;;28.04;100.00;99640.25;5010290;28;19928;-81
2023/07/23 10:18:23;;;;;;;;;;;;;;;28.10;100.00;99636.53;5013644;28;20390;-82
2023/07/23 10:20:49;;;;;;;;;;;;;;;28.18;100.00;99631.75;5008458;28;20008;-81
2023/07/23 10:23:14;;;;;;;;;;;;;;;28.25;100.00;99637.81;5012850;28;20345;-82
2023/07/23 10:25:39;;;;;;;;;;;;;;;28.35;100.00;99637.91;5010142;28;19929;-81
2023/07/23 10:28:06;;;;;;;;;;;;;;;28.42;100.00;99643.94;5011424;28;19921;-81
2023/07/23 10:30:33;;;;;;;;;;;;;;;28.51;100.00;99642.44;5009514;28;19925;-82
2023/07/23 10:33:11;;;;;;;;;;;;;;;28.57;100.00;99635.94;4979604;28;19961;-81
2023/07/23 10:35:48;;;;;;;;;;;;;;;28.63;100.00;99634.91;5010582;28;19922;-82
2023/07/23 10:38:19;;;;;;;;;;;;;;;28.70;100.00;99635.50;5011770;28;19926;-82
2023/07/23 10:40:45;;;;;;;;;;;;;;;28.75;100.00;99630.16;5010784;28;19929;-81
2023/07/23 10:43:11;;;;;;;;;;;;;;;28.80;100.00;99624.78;5007802;28;20021;-78
2023/07/23 10:45:37;;;;;;;;;;;;;;;28.84;99.72;99634.03;5011992;28;19921;-80
2023/07/23 10:48:03;;;;;;;;;;;;;;;28.85;100.00;99618.56;5011743;28;20328;-82
2023/07/23 10:50:30;;;;;;;;;;;;;;;28.88;100.00;99626.19;5009758;28;19975;-82
2023/07/23 10:53:03;;;;;;;;;;;;;;;28.94;100.00;99618.88;5007070;28;19965;-82
2023/07/23 10:55:47;;;;;;;;;;;;;;;29.01;100.00;99619.47;5012125;28;20566;-81
2023/07/23 10:58:14;;;;;;;;;;;;;;;29.01;99.50;99608.63;5010463;28;20393;-80
2023/07/23 11:00:44;;;;;;;;;;;;;;;29.02;100.00;99610.25;5010044;28;19968;-81
2023/07/23 11:03:13;;;;;;;;;;;;;;;29.06;100.00;99612.19;5009590;28;19921;-81
2023/07/23 11:05:42;;;;;;;;;;;;;;;29.07;98.50;99605.66;5006101;28;20309;-81
2023/07/23 11:08:25;;;;;;;;;;;;;;;29.08;97.88;99603.78;5012350;28;19947;-82
2023/07/23 11:10:55;;;;;;;;;;;;;;;29.11;97.21;99604.06;5008553;28;19962;-81
2023/07/23 11:13:22;;;;;;;;;;;;;;;29.18;90.11;99607.38;5009426;28;19973;-80
2023/07/23 11:15:47;;;;;;;;;;;;;;;29.24;89.02;99602.78;4991615;28;19921;-80
2023/07/23 11:18:13;;;;;;;;;;;;;;;29.28;90.38;99603.88;4991164;28;20016;-81
2023/07/23 11:20:44;;;;;;;;;;;;;;;29.38;89.10;99604.00;5011032;28;19921;-81
2023/07/23 11:23:10;;;;;;;;;;;;;;;29.48;87.86;99598.59;5011352;28;19922;-82
2023/07/23 11:25:36;;;;;;;;;;;;;;;29.51;88.39;99598.03;5009616;28;20332;-81
2023/07/23 11:28:01;;;;;;;;;;;;;;;29.53;84.58;99601.31;5011357;28;19921;-82
2023/07/23 11:30:26;;;;;;;;;;;;;;;29.48;82.89;99593.16;5009585;28;19922;-81
2023/07/23 11:32:52;;;;;;;;;;;;;;;29.47;79.95;99586.06;5009560;28;19922;-82
2023/07/23 11:35:18;;;;;;;;;;;;;;;29.47;81.63;99587.97;5012526;28;19922;-81
2023/07/23 11:37:49;;;;;;;;;;;;;;;29.50;82.12;99580.13;5007731;28;19921;-81
2023/07/23 11:40:21;;;;;;;;;;;;;;;29.57;82.39;99579.88;5011179;28;20026;-80
2023/07/23 11:42:46;;;;;;;;;;;;;;;29.64;82.04;99578.53;5001733;28;19968;-81
2023/07/23 11:45:12;;;;;;;;;;;;;;;29.72;77.99;99577.19;5009858;28;19921;-79
2023/07/23 11:47:47;;;;;;;;;;;;;;;29.77;75.04;99579.13;5010012;28;19930;-80
2023/07/23 11:50:12;;;;;;;;;;;;;;;29.79;75.95;99576.94;5008633;28;19928;-79
2023/07/23 11:52:37;;;;;;;;;;;;;;;29.86;76.11;99572.09;5006975;28;19926;-80
2023/07/23 11:55:03;;;;;;;;;;;;;;;29.92;71.07;99571.03;5011183;28;20016;-80
2023/07/23 11:57:29;;;;;;;;;;;;;;;29.97;68.06;99562.88;5007816;28;19925;-80
2023/07/23 11:59:54;;;;;;;;;;;;;;;30.05;69.44;99565.06;5009780;28;20268;-80
2023/07/23 12:02:20;;;;;;;;;;;;;;;30.14;68.67;99560.72;5005715;28;20084;-79
2023/07/23 12:04:45;;;;;;;;;;;;;;;30.27;68.05;99552.03;4997577;28;19932;-81
2023/07/23 12:07:10;;;;;;;;;;;;;;;30.44;68.99;99558.03;5005394;28;19929;-81
2023/07/23 12:09:36;;;;;;;;;;;;;;;30.54;68.90;99546.34;5009151;28;20325;-81
2023/07/23 12:12:01;;;;;;;;;;;;;;;30.64;68.91;99546.31;5005019;28;19921;-81
2023/07/23 12:14:26;;;;;;;;;;;;;;;30.77;66.66;99544.94;5010463;28;19921;-81